Time;durP1;ratioP1;P1;durP2;ratioP2;P2;SDS_P1;SDS_P2;PMS_P1;PMS_P2;Temp;Humidity;BMP_temperature;BMP_pressure;BME280_temperature;BME280_humidity;BME280_pressure;Samples;Min_cycle;Max_cycle;Signal;HPM_P1;HPM_P2
2022/04/12 00:01:57;;;;;;;7.82;2.40;;;;;;;26.03;30.39;99725.03;4937307;29;20038;-45
2022/04/12 00:04:26;;;;;;;9.20;2.83;;;;;;;26.03;30.43;99717.16;4937398;29;20095;-47
2022/04/12 00:06:54;;;;;;;7.22;2.60;;;;;;;26.03;30.54;99719.78;4937141;29;20028;-49
2022/04/12 00:09:23;;;;;;;4.20;2.17;;;;;;;25.99;30.31;99720.72;4937081;29;20093;-48
2022/04/12 00:11:52;;;;;;;5.93;2.20;;;;;;;26.01;30.35;99701.44;4937247;29;20027;-47
2022/04/12 00:14:20;;;;;;;7.28;2.08;;;;;;;26.03;30.50;99702.28;4937201;29;20027;-45
2022/04/12 00:19:02;;;;;;;9.07;2.55;;;;;;;26.02;30.46;99694.41;4936915;29;20103;-48
2022/04/12 00:19:36;;;;;;;6.78;2.67;;;;;;;25.99;30.72;99682.19;4937082;29;20064;-45
2022/04/12 00:22:05;;;;;;;8.38;2.10;;;;;;;26.01;30.56;99675.16;4936858;29;20027;-48
2022/04/12 00:24:33;;;;;;;8.85;2.75;;;;;;;25.98;30.86;99704.09;4937010;29;20059;-45
2022/04/12 00:27:02;;;;;;;5.88;1.83;;;;;;;26.01;30.49;99735.59;4936919;29;20023;-46
2022/04/12 00:29:29;;;;;;;6.03;2.17;;;;;;;26.04;30.51;99737.28;4937156;29;20545;-52
2022/04/12 00:31:58;;;;;;;10.20;2.58;;;;;;;26.00;30.76;99732.97;4931584;29;20062;-52
2022/04/12 00:34:26;;;;;;;7.85;2.72;;;;;;;26.04;30.66;99726.78;4917386;29;20043;-53
2022/04/12 00:36:55;;;;;;;6.65;2.35;;;;;;;26.03;30.63;99727.66;4917091;29;20070;-45
2022/04/12 00:39:23;;;;;;;8.88;2.72;;;;;;;26.06;30.70;99732.88;4917484;29;20390;-48
2022/04/12 00:41:52;;;;;;;8.30;2.67;;;;;;;26.09;30.31;99720.56;4917546;29;20031;-47
2022/04/12 00:44:20;;;;;;;9.18;2.40;;;;;;;26.01;30.29;99719.81;4918332;29;20028;-48
2022/04/12 00:46:49;;;;;;;7.90;2.60;;;;;;;25.91;30.43;99699.81;4917609;29;20025;-47
2022/04/12 00:49:17;;;;;;;10.65;3.00;;;;;;;25.92;30.78;99710.31;4916642;29;20111;-49
2022/04/12 00:51:47;;;;;;;9.38;3.13;;;;;;;25.88;30.86;99708.63;4917658;29;20514;-47
2022/04/12 00:54:16;;;;;;;9.45;2.65;;;;;;;25.94;30.74;99707.66;4900600;29;20087;-49
2022/04/12 00:56:43;;;;;;;7.43;2.50;;;;;;;25.99;30.83;99710.22;4900698;29;20032;-47
2022/04/12 00:59:12;;;;;;;9.48;2.90;;;;;;;25.98;30.85;99714.63;4917599;29;20035;-47
2022/04/12 01:01:40;;;;;;;8.73;2.85;;;;;;;25.96;30.39;99723.41;4917098;29;20059;-54
2022/04/12 01:04:09;;;;;;;9.25;2.88;;;;;;;26.00;30.62;99735.59;4900590;29;20115;-46
2022/04/12 01:06:38;;;;;;;8.30;2.70;;;;;;;25.96;30.75;99731.31;4917350;29;20030;-53
2022/04/12 01:09:07;;;;;;;11.57;2.97;;;;;;;25.94;30.87;99729.56;4916793;29;20107;-49
2022/04/12 01:11:37;;;;;;;24.05;4.05;;;;;;;25.86;30.79;99720.91;4917557;29;20057;-51
2022/04/12 01:14:05;;;;;;;10.35;3.03;;;;;;;25.87;30.90;99719.16;4917214;29;20106;-44
2022/04/12 01:16:34;;;;;;;11.68;3.58;;;;;;;25.83;30.96;99717.47;4899912;29;20435;-50
2022/04/12 01:19:02;;;;;;;10.10;3.15;;;;;;;25.86;30.86;99715.66;4900230;29;20494;-50
2022/04/12 01:21:48;;;;;;;11.60;2.63;;;;;;;25.82;30.67;99727.09;4917099;29;20035;-48
2022/04/12 01:24:17;;;;;;;10.48;2.78;;;;;;;25.79;30.77;99730.66;4917558;29;20087;-47
2022/04/12 01:26:45;;;;;;;8.98;2.90;;;;;;;25.81;31.12;99740.25;4900313;29;20028;-50
2022/04/12 01:29:14;;;;;;;10.05;3.17;;;;;;;25.79;30.98;99746.41;4900728;29;20470;-47
2022/04/12 01:31:43;;;;;;;10.27;2.60;;;;;;;25.77;30.70;99769.19;4916810;29;20071;-46
2022/04/12 01:34:10;;;;;;;7.68;2.75;;;;;;;25.77;30.99;99779.69;4917002;29;20028;-51
2022/04/12 01:36:38;;;;;;;7.88;2.60;;;;;;;25.79;31.14;99784.97;4916993;29;20024;-51
2022/04/12 01:39:07;;;;;;;12.27;3.58;;;;;;;25.81;31.09;99772.66;4916682;29;20032;-54
2022/04/12 01:41:35;;;;;;;12.27;3.58;;;;;;;25.81;30.82;99779.66;4916432;29;20395;-49
2022/04/12 01:44:04;;;;;;;13.63;3.05;;;;;;;25.76;31.23;99771.84;4917164;29;20048;-49
2022/04/12 01:46:33;;;;;;;8.43;2.78;;;;;;;25.75;31.19;99764.88;4916865;29;20032;-51
2022/04/12 01:49:01;;;;;;;8.02;2.90;;;;;;;25.74;30.88;99760.50;4917001;29;20067;-47
2022/04/12 01:51:30;;;;;;;17.23;4.00;;;;;;;25.71;31.06;99755.28;4916915;29;20032;-49
2022/04/12 01:53:58;;;;;;;14.32;3.15;;;;;;;25.73;30.83;99771.88;4899951;29;20445;-51
2022/04/12 01:56:28;;;;;;;9.45;2.90;;;;;;;25.70;30.79;99756.16;4916908;29;20120;-47
2022/04/12 01:58:56;;;;;;;10.25;3.10;;;;;;;25.72;30.80;99773.66;4916866;29;20031;-51
2022/04/12 02:01:25;;;;;;;10.65;3.47;;;;;;;25.74;31.00;99781.50;4920111;29;20478;-49
2022/04/12 02:03:54;;;;;;;12.40;3.28;;;;;;;25.79;30.96;99783.19;4920845;29;20032;-50
2022/04/12 02:06:22;;;;;;;7.95;2.92;;;;;;;25.78;31.16;99780.59;4920880;29;20043;-46
2022/04/12 02:08:49;;;;;;;12.55;3.00;;;;;;;25.77;30.88;99771.81;4920404;29;20471;-51
2022/04/12 02:11:18;;;;;;;10.60;3.78;;;;;;;25.79;30.80;99758.69;4920193;29;20039;-49
2022/04/12 02:13:46;;;;;;;8.80;3.20;;;;;;;25.71;30.83;99757.91;4920168;29;20040;-50
2022/04/12 02:16:15;;;;;;;7.57;3.05;;;;;;;25.75;30.98;99767.50;4920428;29;20056;-51
2022/04/12 02:18:43;;;;;;;14.35;4.32;;;;;;;25.72;30.85;99768.41;4920281;29;20040;-52
2022/04/12 02:21:10;;;;;;;10.95;3.00;;;;;;;25.75;31.02;99749.94;4919981;29;20095;-47
2022/04/12 02:23:39;;;;;;;11.23;3.60;;;;;;;25.70;30.94;99766.66;4903628;29;20071;-50
2022/04/12 02:26:08;;;;;;;10.05;3.40;;;;;;;25.76;30.70;99783.22;4920107;29;20059;-52
2022/04/12 02:28:36;;;;;;;11.52;3.30;;;;;;;25.74;31.18;99784.13;4920123;29;20111;-47
2022/04/12 02:31:05;;;;;;;11.57;3.47;;;;;;;25.74;30.88;99786.75;4920294;29;20075;-46
2022/04/12 02:33:32;;;;;;;14.10;3.25;;;;;;;25.72;31.09;99788.53;4919395;29;20107;-53
2022/04/12 02:36:01;;;;;;;14.07;3.30;;;;;;;25.74;31.23;99776.25;4920232;29;20386;-50
2022/04/12 02:38:29;;;;;;;8.65;3.03;;;;;;;25.72;30.79;99781.53;4919653;29;20043;-49
2022/04/12 02:40:58;;;;;;;11.00;3.65;;;;;;;25.71;30.84;99765.78;4919391;29;20060;-48
2022/04/12 02:43:26;;;;;;;9.95;3.22;;;;;;;25.71;30.88;99755.28;4919890;29;20036;-53
2022/04/12 02:45:55;;;;;;;11.10;3.38;;;;;;;25.70;30.94;99777.19;4919800;29;20111;-49
2022/04/12 02:48:23;;;;;;;7.30;2.63;;;;;;;25.73;30.89;99772.75;4919409;29;20390;-48
2022/04/12 02:50:52;;;;;;;9.23;2.60;;;;;;;25.68;30.95;99779.84;4919999;29;20028;-52
2022/04/12 02:53:20;;;;;;;7.75;2.55;;;;;;;25.67;30.90;99788.59;4919651;29;20542;-44
2022/04/12 02:55:48;;;;;;;7.90;2.60;;;;;;;25.68;30.86;99792.09;4919418;29;20043;-44
2022/04/12 02:58:17;;;;;;;9.13;2.97;;;;;;;25.69;30.90;99797.34;4919836;29;20024;-43
2022/04/12 03:00:46;;;;;;;8.88;3.45;;;;;;;25.67;31.15;99792.97;4919380;29;20078;-43
2022/04/12 03:03:14;;;;;;;12.23;3.63;;;;;;;25.70;31.07;99790.31;4919349;29;20032;-45
2022/04/12 03:05:43;;;;;;;9.75;3.00;;;;;;;25.74;30.99;99789.38;4918848;29;20032;-45
2022/04/12 03:08:11;;;;;;;9.20;2.30;;;;;;;25.71;30.72;99782.44;4918958;29;20039;-48
2022/04/12 03:10:39;;;;;;;10.43;3.10;;;;;;;25.70;31.05;99778.06;4919008;29;20059;-45
2022/04/12 03:13:08;;;;;;;8.15;2.60;;;;;;;25.70;30.85;99774.56;4918410;29;20398;-46
2022/04/12 03:15:37;;;;;;;9.40;3.08;;;;;;;25.68;30.85;99771.97;4918429;29;20510;-49
2022/04/12 03:18:06;;;;;;;9.05;2.80;;;;;;;25.71;30.83;99773.66;4919044;29;20039;-48
2022/04/12 03:20:34;;;;;;;11.43;3.20;;;;;;;25.72;30.68;99791.16;4919187;29;20039;-47
2022/04/12 03:23:03;;;;;;;11.50;2.78;;;;;;;25.73;31.10;99803.41;4918836;29;20032;-47
2022/04/12 03:25:31;;;;;;;8.45;2.42;;;;;;;25.69;31.17;99820.09;4919006;29;20028;-49
2022/04/12 03:28:01;;;;;;;10.60;3.58;;;;;;;25.72;31.00;99817.44;4919560;29;20127;-47
2022/04/12 03:30:30;;;;;;;8.15;2.30;;;;;;;25.70;30.90;99819.19;4919098;29;20475;-48
2022/04/12 03:32:58;;;;;;;7.20;2.22;;;;;;;25.70;30.74;99830.59;4918595;29;20048;-50
2022/04/12 03:35:25;;;;;;;8.30;2.35;;;;;;;25.70;30.93;99833.22;4918919;29;20032;-47
2022/04/12 03:37:54;;;;;;;8.57;3.10;;;;;;;25.70;31.12;99832.34;4918984;29;20048;-46
2022/04/12 03:40:27;;;;;;;9.48;3.22;;;;;;;25.62;31.27;99830.69;4918611;29;20032;-44
2022/04/12 03:42:55;;;;;;;6.55;2.25;;;;;;;25.72;30.84;99841.06;4918893;29;20115;-50
2022/04/12 03:45:23;;;;;;;5.57;2.20;;;;;;;25.70;30.88;99841.09;4918326;29;20035;-49
2022/04/12 03:47:51;;;;;;;7.60;2.53;;;;;;;25.74;30.92;99847.19;4918819;29;20032;-47
2022/04/12 03:50:20;;;;;;;5.15;2.08;;;;;;;25.71;30.72;99842.84;4918565;29;20135;-50
2022/04/12 03:52:48;;;;;;;4.88;1.83;;;;;;;25.68;30.99;99847.25;4918481;29;20032;-48
2022/04/12 03:55:30;;;;;;;10.15;2.70;;;;;;;25.69;31.16;99849.88;4918505;29;20119;-44
2022/04/12 03:58:00;;;;;;;7.60;2.90;;;;;;;25.73;30.79;99850.69;4918530;29;20067;-50
2022/04/12 04:00:29;;;;;;;7.43;2.30;;;;;;;25.70;31.11;99842.84;4918186;29;20079;-49
2022/04/12 04:02:58;;;;;;;7.85;2.28;;;;;;;25.70;30.95;99843.72;4918293;29;20032;-50
2022/04/12 04:05:27;;;;;;;11.27;2.70;;;;;;;25.74;30.92;99847.19;4918226;29;20362;-48
2022/04/12 04:07:56;;;;;;;7.78;2.88;;;;;;;25.71;31.04;99842.84;4918336;29;20032;-46
2022/04/12 04:10:24;;;;;;;7.28;2.30;;;;;;;25.70;30.88;99842.84;4918359;29;20111;-46
2022/04/12 04:12:53;;;;;;;7.50;2.15;;;;;;;25.67;30.74;99848.13;4917722;29;20038;-44
2022/04/12 04:15:21;;;;;;;10.85;2.70;;;;;;;25.67;30.97;99846.38;4917910;29;20381;-46
2022/04/12 04:17:50;;;;;;;6.78;2.45;;;;;;;25.69;31.15;99852.50;4918185;29;20032;-48
2022/04/12 04:20:21;;;;;;;6.45;2.45;;;;;;;25.71;30.60;99845.47;4918075;29;20119;-50
2022/04/12 04:22:49;;;;;;;6.03;2.25;;;;;;;25.73;30.67;99845.44;4918296;29;20044;-49
2022/04/12 04:25:18;;;;;;;5.00;2.13;;;;;;;25.67;30.73;99850.75;4918090;29;20054;-48
2022/04/12 04:27:46;;;;;;;4.30;2.15;;;;;;;25.67;30.97;99851.63;4917988;29;20051;-50
2022/04/12 04:30:17;;;;;;;6.68;2.15;;;;;;;25.70;31.04;99855.97;4917656;29;20039;-48
2022/04/12 04:32:46;;;;;;;8.80;2.63;;;;;;;25.68;30.94;99852.50;4917695;29;20052;-48
2022/04/12 04:35:15;;;;;;;5.30;2.33;;;;;;;25.69;30.89;99870.88;4917685;29;20059;-47
2022/04/12 04:37:45;;;;;;;5.25;1.95;;;;;;;25.67;30.85;99864.78;4917695;29;20442;-46
2022/04/12 04:40:24;;;;;;;8.35;2.40;;;;;;;25.70;31.00;99869.09;4901459;29;20036;-48
2022/04/12 04:42:53;;;;;;;9.63;2.65;;;;;;;25.71;30.93;99870.84;4917606;29;20020;-48
2022/04/12 04:45:22;;;;;;;6.65;2.03;;;;;;;25.63;30.75;99860.44;4901043;29;20078;-49
2022/04/12 04:47:51;;;;;;;9.57;2.50;;;;;;;25.68;31.15;99873.50;4917828;29;20025;-49
2022/04/12 04:50:20;;;;;;;5.80;2.03;;;;;;;25.63;31.02;99866.56;4917482;29;20497;-45
2022/04/12 04:52:49;;;;;;;6.78;2.60;;;;;;;25.66;31.08;99860.41;4918175;29;20028;-49
2022/04/12 04:55:19;;;;;;;6.13;2.28;;;;;;;25.66;30.75;99857.78;4917579;29;20032;-44
2022/04/12 04:57:48;;;;;;;5.82;1.90;;;;;;;25.69;30.64;99868.25;4917593;29;20032;-52
2022/04/12 05:00:18;;;;;;;7.82;1.88;;;;;;;25.68;30.95;99861.25;4917261;29;20664;-44
2022/04/12 05:02:48;;;;;;;6.80;2.22;;;;;;;25.68;31.16;99863.00;4917611;29;20722;-46
2022/04/12 05:05:18;;;;;;;5.78;2.20;;;;;;;25.70;31.06;99875.25;4917705;29;20036;-48
2022/04/12 05:07:48;;;;;;;7.78;2.72;;;;;;;25.69;31.10;99886.63;4917775;29;20038;-45
2022/04/12 05:10:19;;;;;;;4.80;1.92;;;;;;;25.67;31.01;99882.28;4917525;29;20032;-50
2022/04/12 05:12:48;;;;;;;6.40;2.10;;;;;;;25.69;30.75;99896.25;4917148;29;20032;-50
2022/04/12 05:15:17;;;;;;;8.13;2.35;;;;;;;25.71;30.88;99902.38;4917346;29;20032;-48
2022/04/12 05:17:55;;;;;;;5.45;1.90;;;;;;;25.72;30.93;99905.00;4917366;29;20123;-49
2022/04/12 05:20:25;;;;;;;9.23;1.90;;;;;;;25.67;30.89;99906.78;4916959;29;20458;-43
2022/04/12 05:22:54;;;;;;;4.45;1.98;;;;;;;25.69;31.04;99894.53;4916657;29;20115;-47
2022/04/12 05:25:23;;;;;;;5.97;2.03;;;;;;;25.72;30.78;99898.84;4917036;29;20080;-44
2022/04/12 05:27:51;;;;;;;4.70;1.60;;;;;;;25.69;30.86;99894.53;4916843;29;20028;-48
2022/04/12 05:30:18;;;;;;;6.00;1.90;;;;;;;25.70;31.05;99901.50;4916799;29;20044;-48
2022/04/12 05:32:45;;;;;;;5.93;2.25;;;;;;;25.67;30.91;99908.53;4927937;29;20489;-44
2022/04/12 05:35:15;;;;;;;4.88;1.70;;;;;;;25.68;30.65;99916.41;4935679;29;20051;-47
2022/04/12 05:37:45;;;;;;;6.03;2.22;;;;;;;25.73;30.62;99932.97;4919162;29;20042;-49
2022/04/12 05:40:15;;;;;;;5.85;2.10;;;;;;;25.65;30.80;99936.59;4935481;29;20027;-50
2022/04/12 05:42:44;;;;;;;6.88;2.25;;;;;;;25.63;30.75;99941.84;4935799;29;20024;-46
2022/04/12 05:45:14;;;;;;;6.15;1.92;;;;;;;25.67;30.70;99940.06;4918842;29;20386;-47
2022/04/12 05:47:44;;;;;;;7.47;2.08;;;;;;;25.68;30.64;99944.41;4935338;29;20027;-46
2022/04/12 05:50:14;;;;;;;3.83;1.58;;;;;;;25.63;31.06;99949.72;4935395;29;20441;-45
2022/04/12 05:52:43;;;;;;;6.40;2.03;;;;;;;25.61;30.92;99935.75;4936097;29;20032;-48
2022/04/12 05:55:15;;;;;;;4.20;1.60;;;;;;;25.70;30.94;99942.66;4935752;29;20028;-47
2022/04/12 05:58:03;;;;;;;4.53;1.77;;;;;;;25.71;30.59;99953.16;4935826;29;20035;-50
2022/04/12 06:00:33;;;;;;;6.03;1.88;;;;;;;25.70;30.65;99955.78;4935484;29;20043;-47
2022/04/12 06:03:03;;;;;;;8.50;1.90;;;;;;;25.69;30.70;99969.81;4935888;29;20040;-45
2022/04/12 06:05:32;;;;;;;5.47;1.88;;;;;;;25.70;30.90;99975.06;4918953;29;20028;-48
2022/04/12 06:08:01;;;;;;;5.15;1.85;;;;;;;25.67;30.82;99976.81;4935773;29;20445;-51
2022/04/12 06:10:29;;;;;;;6.68;2.13;;;;;;;25.70;30.57;99968.91;4935605;29;20421;-48
2022/04/12 06:12:58;;;;;;;5.47;2.03;;;;;;;25.68;30.91;99965.44;4935564;29;20082;-54
2022/04/12 06:15:26;;;;;;;6.30;2.38;;;;;;;25.70;31.00;99971.53;4935559;29;20024;-47
2022/04/12 06:17:55;;;;;;;6.43;1.90;;;;;;;25.68;30.84;99973.31;4935786;29;20036;-53
2022/04/12 06:20:24;;;;;;;6.50;1.75;;;;;;;25.70;30.89;99982.06;4935451;29;20035;-48
2022/04/12 06:22:53;;;;;;;5.65;2.40;;;;;;;25.70;30.86;99977.69;4935415;29;20051;-51
2022/04/12 06:25:22;;;;;;;4.97;1.75;;;;;;;25.70;30.75;99998.69;4935890;29;20083;-50
2022/04/12 06:27:51;;;;;;;5.53;1.63;;;;;;;25.72;30.63;99993.41;4935647;29;20032;-51
2022/04/12 06:30:22;;;;;;;5.45;2.08;;;;;;;25.70;30.86;99998.69;4935677;29;20103;-49
2022/04/12 06:32:51;;;;;;;5.55;2.15;;;;;;;25.70;30.79;100018.81;4935327;29;20055;-46
2022/04/12 06:35:20;;;;;;;3.47;1.55;;;;;;;25.69;31.01;100012.72;4935406;29;20045;-52
2022/04/12 06:37:50;;;;;;;7.90;1.90;;;;;;;25.72;31.16;100009.19;4935687;29;20422;-52
2022/04/12 06:40:19;;;;;;;4.78;1.40;;;;;;;25.71;30.67;100016.22;4935508;29;20031;-50
2022/04/12 06:42:49;;;;;;;4.63;1.70;;;;;;;25.71;31.03;100023.19;4918517;29;20409;-52
2022/04/12 06:45:17;;;;;;;4.82;1.60;;;;;;;25.73;30.77;100026.69;4935609;29;20032;-46
2022/04/12 06:47:51;;;;;;;5.72;2.00;;;;;;;25.72;31.04;100027.56;4937338;29;20039;-45
2022/04/12 06:50:20;;;;;;;6.47;2.80;;;;;;;25.74;31.25;100034.53;4921861;29;20028;-49
2022/04/12 06:52:48;;;;;;;9.95;2.72;;;;;;;25.74;31.30;100028.44;4938881;29;20051;-54
2022/04/12 06:55:16;;;;;;;7.93;2.83;;;;;;;25.77;31.03;100044.16;4938617;29;20506;-48
2022/04/12 06:57:45;;;;;;;8.98;3.45;;;;;;;25.71;31.14;100046.84;4938513;29;20059;-45
2022/04/12 07:00:13;;;;;;;9.75;3.88;;;;;;;25.72;31.17;100038.06;4938075;29;20027;-44
2022/04/12 07:02:42;;;;;;;10.30;3.85;;;;;;;25.75;31.39;100048.56;4938978;29;20449;-50
2022/04/12 07:05:09;;;;;;;9.82;3.35;;;;;;;25.73;31.30;100052.94;4938539;29;20035;-44
2022/04/12 07:07:38;;;;;;;8.20;3.22;;;;;;;25.74;31.28;100044.19;4938513;29;20028;-45
2022/04/12 07:10:09;;;;;;;8.02;3.00;;;;;;;25.76;31.29;100050.31;4939178;29;20067;-46
2022/04/12 07:12:38;;;;;;;11.40;3.30;;;;;;;25.76;31.35;100045.06;4938836;29;20031;-47
2022/04/12 07:15:07;;;;;;;7.85;3.40;;;;;;;25.77;31.32;100047.66;4921529;29;20127;-45
2022/04/12 07:17:36;;;;;;;9.93;3.13;;;;;;;25.77;31.61;100066.03;4938318;29;20032;-45
2022/04/12 07:20:05;;;;;;;7.68;3.10;;;;;;;25.78;31.34;100059.03;4938574;29;20036;-48
2022/04/12 07:22:33;;;;;;;7.13;3.03;;;;;;;25.77;31.24;100065.19;4938840;29;20031;-45
2022/04/12 07:25:02;;;;;;;6.35;2.78;;;;;;;25.79;31.28;100066.03;4938341;29;20023;-46
2022/04/12 07:27:36;;;;;;;7.63;3.03;;;;;;;25.79;31.39;100069.53;4937942;29;20613;-44
2022/04/12 07:30:09;;;;;;;10.80;3.10;;;;;;;25.79;31.40;100066.91;4938442;29;20031;-46
2022/04/12 07:32:38;;;;;;;5.97;2.67;;;;;;;25.80;31.55;100073.03;4937661;29;20103;-45
2022/04/12 07:35:06;;;;;;;7.78;3.53;;;;;;;25.80;31.57;100078.31;4937766;29;20028;-44
2022/04/12 07:37:35;;;;;;;6.35;2.63;;;;;;;25.79;31.60;100080.03;4937430;29;20114;-45
2022/04/12 07:40:05;;;;;;;7.47;2.55;;;;;;;25.86;31.59;100083.47;4937997;29;20031;-45
2022/04/12 07:42:32;;;;;;;7.85;2.85;;;;;;;25.85;31.56;100076.47;4920722;29;20095;-44
2022/04/12 07:45:01;;;;;;;6.60;2.78;;;;;;;25.84;31.41;100072.09;4937600;29;20537;-48
2022/04/12 07:47:29;;;;;;;6.18;2.63;;;;;;;25.86;31.36;100072.97;4937541;29;20031;-45
2022/04/12 07:49:58;;;;;;;5.95;2.70;;;;;;;25.83;31.67;100072.13;4937735;29;20067;-52
2022/04/12 07:52:27;;;;;;;5.40;2.30;;;;;;;25.85;31.77;100080.88;4937729;29;20428;-46
2022/04/12 07:54:55;;;;;;;5.88;2.33;;;;;;;25.85;31.32;100075.63;4937522;29;20103;-46
2022/04/12 07:57:24;;;;;;;6.72;2.42;;;;;;;25.85;31.79;100081.72;4937267;29;20039;-45
2022/04/12 07:59:52;;;;;;;4.82;1.88;;;;;;;25.87;31.72;100090.47;4937834;29;20054;-45
2022/04/12 08:02:23;;;;;;;6.35;2.80;;;;;;;25.89;31.52;100108.88;4937506;29;20031;-45
2022/04/12 08:04:51;;;;;;;7.50;2.60;;;;;;;25.96;31.60;100114.94;4937118;29;20066;-44
2022/04/12 08:07:20;;;;;;;5.57;2.33;;;;;;;25.89;31.62;100111.50;4937231;29;20035;-44
2022/04/12 08:09:48;;;;;;;5.28;2.05;;;;;;;25.91;31.67;100110.59;4936518;29;20027;-46
2022/04/12 08:12:17;;;;;;;5.95;1.98;;;;;;;25.93;31.50;100110.56;4920217;29;20119;-46
2022/04/12 08:14:45;;;;;;;6.22;2.22;;;;;;;25.93;31.62;100107.94;4936657;29;20481;-47
2022/04/12 08:17:14;;;;;;;8.85;2.40;;;;;;;25.93;31.40;100107.94;4937026;29;20062;-45
2022/04/12 08:19:42;;;;;;;5.30;2.22;;;;;;;25.97;31.60;100109.66;4936896;29;20035;-45
2022/04/12 08:22:11;;;;;;;5.85;2.20;;;;;;;25.99;31.49;100107.91;4937182;29;20028;-45
2022/04/12 08:24:40;;;;;;;5.30;2.05;;;;;;;25.99;31.80;100112.25;4936711;29;20526;-45
2022/04/12 08:27:08;;;;;;;6.07;1.98;;;;;;;25.98;31.66;100110.56;4936899;29;20460;-45
2022/04/12 08:29:37;;;;;;;7.60;2.67;;;;;;;25.96;32.00;100112.31;4936803;29;20039;-49
2022/04/12 08:32:06;;;;;;;6.05;2.10;;;;;;;26.00;31.86;100107.00;4919832;29;20051;-44
2022/04/12 08:34:34;;;;;;;6.22;2.25;;;;;;;26.03;31.80;100104.38;4937220;29;20027;-43
2022/04/12 08:37:05;;;;;;;7.40;1.98;;;;;;;26.04;31.59;100115.72;4937126;29;20115;-44
2022/04/12 08:39:34;;;;;;;3.65;1.83;;;;;;;26.04;31.98;100113.09;4936778;29;20027;-44
2022/04/12 08:42:03;;;;;;;3.33;1.30;;;;;;;26.06;32.05;100124.47;4936831;29;20123;-44
2022/04/12 08:44:33;;;;;;;5.05;2.10;;;;;;;26.09;31.85;100127.09;4936966;29;20059;-44
2022/04/12 08:47:05;;;;;;;5.97;1.80;;;;;;;26.13;31.84;100134.09;4936487;29;20034;-45
2022/04/12 08:49:33;;;;;;;6.57;1.60;;;;;;;26.13;32.01;100141.97;4936564;29;20074;-44
2022/04/12 08:52:03;;;;;;;5.72;1.90;;;;;;;26.16;31.95;100157.69;4936845;29;20030;-44
2022/04/12 08:54:33;;;;;;;3.85;1.55;;;;;;;26.18;31.64;100169.06;4936261;29;20067;-44
2022/04/12 08:57:02;;;;;;;4.55;1.70;;;;;;;26.20;31.74;100177.81;4936534;29;20051;-44
2022/04/12 08:59:31;;;;;;;3.92;1.50;;;;;;;26.21;31.71;100178.72;4936477;29;20035;-45
2022/04/12 09:02:00;;;;;;;3.78;1.38;;;;;;;26.23;31.91;100184.81;4937205;29;20165;-43
2022/04/12 09:04:29;;;;;;;4.50;1.42;;;;;;;26.26;31.70;100197.06;4919555;29;20094;-43
2022/04/12 09:06:59;;;;;;;4.28;1.73;;;;;;;26.26;31.77;100194.44;4936622;29;20470;-43
2022/04/12 09:09:29;;;;;;;4.43;1.60;;;;;;;26.24;31.92;100199.69;4919190;29;20039;-45
2022/04/12 09:11:59;;;;;;;6.55;1.42;;;;;;;26.27;31.65;100201.44;4936096;29;20168;-43
2022/04/12 09:14:38;;;;;;;4.97;1.77;;;;;;;26.29;31.59;100210.19;4936143;29;20055;-42
2022/04/12 09:17:08;;;;;;;3.65;1.58;;;;;;;26.29;31.85;100212.81;4935987;29;20039;-45
2022/04/12 09:19:41;;;;;;;6.70;1.50;;;;;;;26.27;31.68;100217.22;4935507;29;20076;-44
2022/04/12 09:22:11;;;;;;;7.35;1.70;;;;;;;26.31;31.79;100216.31;4935905;29;20031;-43
2022/04/12 09:24:45;;;;;;;4.63;1.73;;;;;;;26.31;31.74;100224.22;4936009;29;20114;-45
2022/04/12 09:27:16;;;;;;;4.60;1.50;;;;;;;26.31;31.84;100227.69;4936162;29;20111;-44
2022/04/12 09:29:55;;;;;;;4.68;1.38;;;;;;;26.32;31.89;100229.44;4936053;29;20028;-44
2022/04/12 09:32:27;;;;;;;5.10;1.90;;;;;;;26.36;31.60;100227.66;4935871;29;20058;-43
2022/04/12 09:34:57;;;;;;;5.97;1.80;;;;;;;26.38;31.57;100223.25;4903310;29;20400;-45
2022/04/12 09:37:28;;;;;;;5.55;1.58;;;;;;;26.43;31.77;100225.84;4935948;29;20064;-43
2022/04/12 09:40:00;;;;;;;5.93;1.35;;;;;;;26.42;31.81;100224.97;4936150;29;20070;-45
2022/04/12 09:42:49;;;;;;;8.20;2.20;;;;;;;26.45;31.44;100224.06;4935873;29;20031;-45
2022/04/12 09:45:27;;;;;;;5.88;1.35;;;;;;;26.45;31.47;100218.81;4935892;29;20126;-48
2022/04/12 09:47:58;;;;;;;6.18;1.63;;;;;;;26.44;31.67;100223.22;4935849;29;20466;-44
2022/04/12 09:50:28;;;;;;;9.82;1.70;;;;;;;26.42;31.73;100227.59;4935747;29;20039;-44
2022/04/12 09:52:59;;;;;;;4.55;1.50;;;;;;;26.39;31.66;100231.13;4935890;29;20040;-44
2022/04/12 09:55:46;;;;;;;6.15;1.80;;;;;;;26.41;31.63;100228.50;4935605;29;20039;-45
2022/04/12 09:58:21;;;;;;;4.93;1.75;;;;;;;26.43;31.78;100224.09;4935837;29;20078;-44
2022/04/12 10:00:50;;;;;;;6.20;1.77;;;;;;;26.46;31.66;100223.19;4936016;29;20027;-46
2022/04/12 10:03:20;;;;;;;7.57;1.88;;;;;;;26.45;31.72;100229.31;4935869;29;20056;-44
2022/04/12 10:05:48;;;;;;;5.50;1.38;;;;;;;26.45;31.75;100235.47;4935056;29;20024;-44
2022/04/12 10:08:18;;;;;;;5.00;1.60;;;;;;;26.44;31.91;100244.25;4935776;29;20067;-44
2022/04/12 10:10:47;;;;;;;5.20;1.60;;;;;;;26.48;31.70;100239.81;4919166;29;20031;-45
2022/04/12 10:13:16;;;;;;;5.30;1.45;;;;;;;26.47;31.72;100235.44;4935494;29;20031;-44
2022/04/12 10:15:45;;;;;;;4.35;1.60;;;;;;;26.48;31.54;100234.56;4935877;29;20024;-43
2022/04/12 10:18:16;;;;;;;9.73;1.45;;;;;;;26.50;31.89;100238.06;4918678;29;20027;-44
2022/04/12 10:20:45;;;;;;;3.10;1.50;;;;;;;26.50;31.63;100244.16;4936106;29;20185;-44
2022/04/12 10:23:18;;;;;;;4.60;1.58;;;;;;;26.50;31.74;100246.81;4922473;29;20038;-44
2022/04/12 10:25:50;;;;;;;6.47;1.85;;;;;;;26.52;31.62;100258.19;4939537;29;20062;-44
2022/04/12 10:28:19;;;;;;;6.10;1.35;;;;;;;26.53;31.60;100261.69;4939097;29;20114;-44
2022/04/12 10:30:48;;;;;;;4.38;1.30;;;;;;;26.58;31.47;100267.78;4906455;29;20389;-44
2022/04/12 10:33:17;;;;;;;3.42;1.25;;;;;;;26.59;31.56;100264.25;4938989;29;20035;-45
2022/04/12 10:35:46;;;;;;;4.07;1.50;;;;;;;26.58;31.50;100269.53;4939224;29;20030;-45
2022/04/12 10:38:18;;;;;;;5.45;1.77;;;;;;;26.58;31.66;100262.50;4939136;29;20038;-46
2022/04/12 10:40:48;;;;;;;3.47;1.17;;;;;;;26.62;31.56;100268.63;4937949;29;20028;-44
2022/04/12 10:43:23;;;;;;;5.50;1.60;;;;;;;26.62;31.60;100271.28;4938502;29;20038;-44
2022/04/12 10:45:53;;;;;;;3.40;1.20;;;;;;;26.62;31.45;100266.88;4938605;29;20031;-44
2022/04/12 10:48:24;;;;;;;2.85;0.95;;;;;;;26.61;31.42;100280.91;4938946;29;20032;-44
2022/04/12 10:50:55;;;;;;;5.32;1.42;;;;;;;26.59;31.71;100274.78;4938880;29;20486;-44
2022/04/12 10:53:43;;;;;;;3.10;1.00;;;;;;;26.67;31.28;100278.22;4922480;29;20142;-44
2022/04/12 10:56:13;;;;;;;6.53;1.67;;;;;;;26.65;31.48;100279.09;4932945;29;20047;-44
2022/04/12 10:58:43;;;;;;;6.47;1.75;;;;;;;26.64;31.38;100273.00;4938671;29;20031;-46
2022/04/12 11:01:13;;;;;;;4.32;1.25;;;;;;;26.65;31.58;100274.72;4938313;29;20035;-44
2022/04/12 11:03:42;;;;;;;4.82;1.45;;;;;;;26.64;31.33;100280.03;4938447;29;20389;-51
2022/04/12 11:06:15;;;;;;;6.90;1.60;;;;;;;26.69;31.38;100281.72;4937972;29;20183;-43
2022/04/12 11:08:47;;;;;;;2.90;0.98;;;;;;;26.68;31.17;100281.72;4938433;29;20116;-44
2022/04/12 11:11:39;;;;;;;3.50;1.17;;;;;;;26.71;31.46;100273.81;4938419;29;20073;-44
2022/04/12 11:14:32;;;;;;;4.95;1.15;;;;;;;26.71;31.09;100278.19;4933636;29;20508;-45
2022/04/12 11:17:10;;;;;;;4.00;1.40;;;;;;;26.70;31.09;100285.22;4933581;29;20048;-45
2022/04/12 11:19:50;;;;;;;3.08;1.13;;;;;;;26.71;31.14;100286.97;4938012;29;20549;-45
2022/04/12 11:22:20;;;;;;;2.60;1.13;;;;;;;26.70;31.38;100285.22;4938432;29;20474;-43
2022/04/12 11:25:19;;;;;;;4.40;1.70;;;;;;;26.73;31.22;100282.56;4937892;29;20032;-44
2022/04/12 11:27:55;;;;;;;4.72;1.25;;;;;;;26.73;31.25;100285.19;4937449;29;20055;-45
2022/04/12 11:30:24;;;;;;;6.07;1.38;;;;;;;26.71;31.33;100288.72;4938113;29;20148;-45
2022/04/12 11:32:55;;;;;;;4.45;1.42;;;;;;;26.73;31.18;100286.94;4937289;29;20051;-44
2022/04/12 11:35:24;;;;;;;3.47;1.40;;;;;;;26.72;31.17;100291.34;4938009;29;20031;-54
2022/04/12 11:37:53;;;;;;;4.05;1.27;;;;;;;26.69;31.33;100294.88;4937944;29;20069;-52
2022/04/12 11:40:26;;;;;;;4.82;1.45;;;;;;;26.72;31.18;100296.59;4937508;29;20037;-44
2022/04/12 11:42:56;;;;;;;5.57;1.50;;;;;;;26.70;31.45;100287.84;4938414;29;20098;-48